Terminal Aerodrome Forecast
Issued by NWS Cleveland, OH

Home | Current Version | Previous Version | Text Only | Print | Product List | Glossary On
Versions: 1 2 3 4 5 6 7 8 9 10 11 12 13 14 15 16 17 18 19 20
000
FTUS41 KCLE 211900 AAA
TAFMFD
TAF AMD
KMFD 211931Z 2120/2218 28015G28KT P6SM SCT035 BKN060
     FM212100 29010G17KT P6SM VCSH SCT025 BKN035
      TEMPO 2122/2201 4SM -TSRA BKN015 OVC025CB
     FM220500 31008KT P6SM SCT025 BKN035
     FM221400 32012KT P6SM BKN035=

USA.gov is the U.S. government's official web portal to all federal, state and local government web resources and services.